NAA weather

Narrabri Airport
Narrabri, New South Wales, Australia

Public forecast

Using degrees Celsius for public forecast. Weather courtesy of forecast.io.

METAR (pilot weather report)

Retrieved 2019/06/26 04:00 UTC (2 minutes ago):

YNBR 260400Z AUTO 15016KT 9999 // NCD 20/05 Q1028

TAF (pilot weather forecast)

Forecast is more than 12 hours old.

Closest forecast is Tamworth Airport, 69.9 nm (129.4 km) SE. Retrieved 2019/06/25 00:36 UTC (1 day ago):

TAF YSTW 252259Z 2600/2618 14008KT 9999 FEW030 FM260100 12014KT 9999 SCT040 FM260800 13008KT 9999 FEW010